createdAt,value
2018-03-06T00:02:07.533Z,6.50
2018-03-06T00:04:35.148Z,6.50
2018-03-06T00:07:02.688Z,6.50
2018-03-06T00:09:30.264Z,6.50
2018-03-06T00:11:57.879Z,6.40
2018-03-06T00:14:26.273Z,6.50
2018-03-06T00:16:54.692Z,6.50
2018-03-06T00:19:22.211Z,6.40
2018-03-06T00:21:50.470Z,6.50
2018-03-06T00:24:18.721Z,6.50
2018-03-06T00:26:46.369Z,6.50
2018-03-06T00:29:13.937Z,6.40
2018-03-06T00:31:41.461Z,6.50
2018-03-06T00:34:09.011Z,6.40
2018-03-06T00:36:36.541Z,6.50
2018-03-06T00:39:04.806Z,6.40
2018-03-06T00:41:32.422Z,6.40
2018-03-06T00:44:00.084Z,6.40
2018-03-06T00:46:27.762Z,6.40
2018-03-06T00:48:56.288Z,6.40
2018-03-06T00:51:28.089Z,6.40
2018-03-06T00:53:56.219Z,6.30
2018-03-06T00:56:23.773Z,6.40
2018-03-06T00:58:52.231Z,6.30
2018-03-06T01:01:20.836Z,6.30
2018-03-06T01:03:48.343Z,6.30
2018-03-06T01:06:16.160Z,6.20
2018-03-06T01:08:43.781Z,6.20
2018-03-06T01:11:11.272Z,6.20
2018-03-06T01:13:38.781Z,6.30
2018-03-06T01:16:06.481Z,6.20
2018-03-06T01:18:34.916Z,6.20
2018-03-06T01:21:02.625Z,6.10
2018-03-06T01:23:31.123Z,6.10
2018-03-06T01:25:58.698Z,6.10
2018-03-06T01:28:26.234Z,6.10
2018-03-06T01:30:53.789Z,6.10
2018-03-06T01:33:21.330Z,6.00
2018-03-06T01:35:49.590Z,5.80
2018-03-06T01:38:17.510Z,5.80
2018-03-06T01:40:45.037Z,5.80
2018-03-06T01:43:12.744Z,5.70
2018-03-06T01:45:40.361Z,5.60
2018-03-06T01:48:07.887Z,5.60
2018-03-06T01:50:35.496Z,5.50
2018-03-06T01:53:03.162Z,5.40
2018-03-06T01:55:30.901Z,5.40
2018-03-06T01:57:58.428Z,5.30
2018-03-06T02:00:26.729Z,5.30
2018-03-06T02:02:54.345Z,5.30
2018-03-06T02:05:21.871Z,5.20
2018-03-06T02:07:49.398Z,5.20
2018-03-06T02:10:17.657Z,5.20
2018-03-06T02:12:46.057Z,5.30
2018-03-06T02:15:13.742Z,5.30
2018-03-06T02:17:41.404Z,5.30
2018-03-06T02:20:09.137Z,5.40
2018-03-06T02:22:36.783Z,5.40
2018-03-06T02:25:04.450Z,5.50
2018-03-06T02:27:32.825Z,5.70
2018-03-06T02:30:00.321Z,5.60
2018-03-06T02:32:27.819Z,5.80
2018-03-06T02:34:55.327Z,5.80
2018-03-06T02:37:22.915Z,5.90
2018-03-06T02:39:50.576Z,6.00
2018-03-06T02:42:18.115Z,6.00
2018-03-06T02:44:45.604Z,6.10
2018-03-06T02:47:13.132Z,6.10
2018-03-06T02:49:40.597Z,6.10
2018-03-06T02:52:08.089Z,6.20
2018-03-06T02:54:36.330Z,6.20
2018-03-06T02:57:03.833Z,6.20
2018-03-06T02:59:32.089Z,6.20
2018-03-06T03:02:00.364Z,6.20
2018-03-06T03:04:28.663Z,6.20
2018-03-06T03:06:56.871Z,6.10
2018-03-06T03:09:24.381Z,6.10
2018-03-06T03:11:52.671Z,6.20
2018-03-06T03:14:20.160Z,6.20
2018-03-06T03:16:47.641Z,6.20
2018-03-06T03:19:15.128Z,6.20
2018-03-06T03:21:43.378Z,6.20
2018-03-06T03:24:10.873Z,6.20
2018-03-06T03:26:38.346Z,6.30
2018-03-06T03:29:05.903Z,6.30
2018-03-06T03:31:33.403Z,6.30
2018-03-06T03:34:00.980Z,6.40
2018-03-06T03:36:28.489Z,6.40
2018-03-06T03:38:56.043Z,6.40
2018-03-06T03:41:23.583Z,6.40
2018-03-06T03:43:51.087Z,6.40
2018-03-06T03:46:18.575Z,6.40
2018-03-06T03:48:46.182Z,6.40
2018-03-06T03:51:13.822Z,6.40
2018-03-06T03:53:41.370Z,6.40
2018-03-06T03:56:09.037Z,6.50
2018-03-06T03:58:36.542Z,6.40
2018-03-06T04:01:04.032Z,6.40
2018-03-06T04:03:31.518Z,6.50
2018-03-06T04:05:59.072Z,6.50
2018-03-06T04:08:26.603Z,6.50
2018-03-06T04:10:54.136Z,6.50
2018-03-06T04:13:22.394Z,6.60
2018-03-06T04:15:50.011Z,6.50
2018-03-06T04:18:17.523Z,6.60
2018-03-06T04:20:45.825Z,6.60
2018-03-06T04:23:13.522Z,6.60
2018-03-06T04:25:41.051Z,6.60
2018-03-06T04:28:08.573Z,6.60
2018-03-06T04:30:36.853Z,6.70
2018-03-06T04:33:05.100Z,6.70
2018-03-06T04:35:32.648Z,6.70
2018-03-06T04:38:00.188Z,6.80
2018-03-06T04:40:27.795Z,6.70
2018-03-06T04:42:56.168Z,6.70
2018-03-06T04:45:23.746Z,6.70
2018-03-06T04:47:51.276Z,6.70
2018-03-06T04:50:19.821Z,6.80
2018-03-06T04:52:47.445Z,6.80
2018-03-06T04:55:14.962Z,6.80
2018-03-06T04:57:42.520Z,6.90
2018-03-06T05:00:09.997Z,6.90
2018-03-06T05:02:37.482Z,6.90
2018-03-06T05:05:04.975Z,6.90
2018-03-06T05:07:32.471Z,6.90
2018-03-06T05:09:59.974Z,7.00
2018-03-06T05:12:27.499Z,7.00
2018-03-06T05:14:55.095Z,7.00
2018-03-06T05:17:22.586Z,7.00
2018-03-06T05:19:50.067Z,7.00
2018-03-06T05:22:18.334Z,7.00
2018-03-06T05:24:46.776Z,7.00
2018-03-06T05:27:16.642Z,7.00
2018-03-06T05:29:45.021Z,7.10
2018-03-06T05:32:12.551Z,7.00
2018-03-06T05:34:40.806Z,6.90
2018-03-06T05:37:08.343Z,6.90
2018-03-06T05:39:35.861Z,6.90
2018-03-06T05:42:03.353Z,6.90
2018-03-06T05:44:30.914Z,6.90
2018-03-06T05:46:59.050Z,6.90
2018-03-06T05:49:26.772Z,6.90
2018-03-06T05:51:54.339Z,6.90
2018-03-06T05:54:22.684Z,6.90
2018-03-06T05:56:50.203Z,6.80
2018-03-06T05:59:17.902Z,6.80
2018-03-06T06:01:45.379Z,6.80
2018-03-06T06:04:13.059Z,6.80
2018-03-06T06:06:41.307Z,6.80
2018-03-06T06:09:08.945Z,6.70
2018-03-06T06:11:36.466Z,6.80
2018-03-06T06:14:04.753Z,6.80
2018-03-06T06:16:33.099Z,6.80
2018-03-06T06:19:00.740Z,6.70
2018-03-06T06:21:28.294Z,6.80
2018-03-06T06:23:55.822Z,6.70
2018-03-06T06:26:23.719Z,6.70
2018-03-06T06:28:51.255Z,6.70
2018-03-06T06:31:18.878Z,6.70
2018-03-06T06:33:47.192Z,6.80
2018-03-06T06:36:14.813Z,6.70
2018-03-06T06:38:43.096Z,6.80
2018-03-06T06:41:11.364Z,6.90
2018-03-06T06:43:39.207Z,6.80
2018-03-06T06:46:06.705Z,6.90
2018-03-06T06:48:34.269Z,6.90
2018-03-06T06:51:02.513Z,7.00
2018-03-06T06:53:30.014Z,6.90
2018-03-06T06:55:57.677Z,7.00
2018-03-06T06:58:25.895Z,7.00
2018-03-06T07:00:54.171Z,7.10
2018-03-06T07:03:21.653Z,7.10
2018-03-06T07:05:49.924Z,7.10
2018-03-06T07:08:18.531Z,7.10
2018-03-06T07:10:46.092Z,7.10
2018-03-06T07:13:13.768Z,7.10
2018-03-06T07:15:41.293Z,7.10
2018-03-06T07:18:09.783Z,7.20
2018-03-06T07:20:37.316Z,7.20
2018-03-06T07:23:05.752Z,7.20
2018-03-06T07:25:34.376Z,7.30
2018-03-06T07:28:02.705Z,7.30
2018-03-06T07:30:30.719Z,7.30
2018-03-06T07:32:58.508Z,7.40
2018-03-06T07:35:26.025Z,7.40
2018-03-06T07:37:54.357Z,7.50
2018-03-06T07:40:21.912Z,7.50
2018-03-06T07:42:49.504Z,7.60
2018-03-06T07:45:18.529Z,7.70
2018-03-06T07:47:46.067Z,7.70
2018-03-06T07:50:14.368Z,7.90
2018-03-06T07:52:42.324Z,7.90
2018-03-06T07:55:10.579Z,8.10
2018-03-06T07:57:38.089Z,8.10
2018-03-06T08:00:05.580Z,8.20
2018-03-06T08:02:33.395Z,8.30
2018-03-06T08:05:00.885Z,8.40
2018-03-06T08:07:28.378Z,8.50
2018-03-06T08:09:56.626Z,8.70
2018-03-06T08:12:24.261Z,8.70
2018-03-06T08:14:51.743Z,8.90
2018-03-06T08:17:19.234Z,9.00
2018-03-06T08:19:46.867Z,9.30
2018-03-06T08:22:15.185Z,10.00
2018-03-06T08:24:42.699Z,9.90
2018-03-06T08:27:10.202Z,10.30
2018-03-06T08:29:37.713Z,10.80
2018-03-06T08:32:05.224Z,11.40
2018-03-06T08:34:32.693Z,11.90
2018-03-06T08:37:00.199Z,12.50
2018-03-06T08:39:28.495Z,14.10
2018-03-06T08:41:56.023Z,14.10
2018-03-06T08:44:23.679Z,14.50
2018-03-06T08:46:51.961Z,15.30
2018-03-06T08:49:20.355Z,15.70
2018-03-06T08:51:47.999Z,15.70
2018-03-06T08:54:16.245Z,15.20
2018-03-06T08:57:04.596Z,15.20
2018-03-06T08:59:32.116Z,15.30
2018-03-06T09:01:59.623Z,15.30
2018-03-06T09:04:27.882Z,15.50
2018-03-06T09:06:55.389Z,15.50
2018-03-06T09:09:23.125Z,16.20
2018-03-06T09:11:51.421Z,17.40
2018-03-06T09:14:18.995Z,17.30
2018-03-06T09:16:47.371Z,17.30
2018-03-06T09:19:14.955Z,16.70
2018-03-06T09:21:42.794Z,15.60
2018-03-06T09:24:10.356Z,15.80
2018-03-06T09:26:37.894Z,16.00
2018-03-06T09:29:05.465Z,16.40
2018-03-06T09:31:32.973Z,16.60
2018-03-06T09:34:00.462Z,16.80
2018-03-06T09:36:27.972Z,17.10
2018-03-06T09:38:55.593Z,17.50
2018-03-06T09:41:23.434Z,17.80
2018-03-06T09:43:51.728Z,17.10
2018-03-06T09:46:19.282Z,17.10
2018-03-06T09:48:46.960Z,17.80
2018-03-06T09:51:14.501Z,18.00
2018-03-06T09:53:42.034Z,18.00
2018-03-06T09:56:10.290Z,19.70
2018-03-06T09:58:37.778Z,19.60
2018-03-06T10:01:05.328Z,20.30
2018-03-06T10:03:32.915Z,20.60
2018-03-06T10:06:00.423Z,21.00
2018-03-06T10:08:27.972Z,21.20
2018-03-06T10:10:55.472Z,20.70
2018-03-06T10:13:22.982Z,19.80
2018-03-06T10:15:51.365Z,20.00
2018-03-06T10:18:19.281Z,20.30
2018-03-06T10:20:47.457Z,20.50
2018-03-06T10:23:15.114Z,20.40
2018-03-06T10:25:42.626Z,21.30
2018-03-06T10:28:10.140Z,22.30
2018-03-06T10:30:38.122Z,22.50
2018-03-06T10:33:05.822Z,22.90
2018-03-06T10:35:34.067Z,22.50
2018-03-06T10:38:05.082Z,22.50
2018-03-06T10:40:32.646Z,22.60
2018-03-06T10:43:00.138Z,22.60
2018-03-06T10:45:27.626Z,22.80
2018-03-06T10:47:55.328Z,22.40
2018-03-06T10:50:22.908Z,21.90
2018-03-06T10:52:50.482Z,21.80
2018-03-06T10:55:17.962Z,21.20
2018-03-06T10:57:50.898Z,19.90
2018-03-06T11:00:24.090Z,19.50
2018-03-06T11:02:52.485Z,20.00
2018-03-06T11:05:20.875Z,18.80
2018-03-06T11:07:49.295Z,18.10
2018-03-06T11:10:16.914Z,18.00
2018-03-06T11:12:45.306Z,17.40
2018-03-06T11:15:13.089Z,17.30
2018-03-06T11:17:40.705Z,17.10
2018-03-06T11:20:09.238Z,17.20
2018-03-06T11:22:36.917Z,17.10
2018-03-06T11:25:04.466Z,17.00
2018-03-06T11:27:32.043Z,17.00
2018-03-06T11:30:00.423Z,16.80
2018-03-06T11:32:28.247Z,16.80
2018-03-06T11:34:55.937Z,17.00
2018-03-06T11:37:23.603Z,17.00
2018-03-06T11:39:51.325Z,17.10
2018-03-06T11:42:19.115Z,17.10
2018-03-06T11:44:46.748Z,17.20
2018-03-06T11:47:14.382Z,17.40
2018-03-06T11:49:42.680Z,17.30
2018-03-06T11:52:10.535Z,17.30
2018-03-06T11:54:38.449Z,17.20
2018-03-06T11:57:06.173Z,17.30
2018-03-06T11:59:33.777Z,17.30
2018-03-06T12:02:01.388Z,17.20
2018-03-06T12:04:29.207Z,17.00
2018-03-06T12:06:56.865Z,17.40
2018-03-06T12:09:24.691Z,17.40
2018-03-06T12:11:52.446Z,17.50
2018-03-06T12:14:20.110Z,17.40
2018-03-06T12:16:47.780Z,17.20
2018-03-06T12:19:15.506Z,17.20
2018-03-06T12:21:43.852Z,17.30
2018-03-06T12:24:11.688Z,17.30
2018-03-06T12:26:39.450Z,17.50
2018-03-06T12:29:07.116Z,17.40
2018-03-06T12:31:34.636Z,17.40
2018-03-06T12:34:02.200Z,17.40
2018-03-06T12:36:29.696Z,17.40
2018-03-06T12:38:57.262Z,17.40
2018-03-06T12:41:25.081Z,17.50
2018-03-06T12:43:52.588Z,17.20
2018-03-06T12:46:20.156Z,17.30
2018-03-06T12:48:48.403Z,16.70
2018-03-06T12:51:17.676Z,16.70
2018-03-06T12:53:45.325Z,16.70
2018-03-06T12:56:13.192Z,16.80
2018-03-06T12:58:40.746Z,16.90
2018-03-06T13:01:08.347Z,16.80
2018-03-06T13:03:35.826Z,16.90
2018-03-06T13:06:04.303Z,17.00
2018-03-06T13:08:31.859Z,17.00
2018-03-06T13:10:59.667Z,17.00
2018-03-06T13:13:27.219Z,17.10
2018-03-06T13:15:54.799Z,17.20
2018-03-06T13:18:22.284Z,17.40
2018-03-06T13:20:51.867Z,17.50
2018-03-06T13:23:19.790Z,17.40
2018-03-06T13:25:47.435Z,17.50
2018-03-06T13:28:16.200Z,17.70
2018-03-06T13:30:43.794Z,17.70
2018-03-06T13:33:11.389Z,17.90
2018-03-06T13:35:40.906Z,17.60
2018-03-06T13:38:08.528Z,17.60
2018-03-06T13:40:36.135Z,17.50
2018-03-06T13:43:03.725Z,17.50
2018-03-06T13:45:31.960Z,17.30
2018-03-06T13:47:59.461Z,17.30
2018-03-06T13:50:27.794Z,17.20
2018-03-06T13:52:55.319Z,17.20
2018-03-06T13:55:22.792Z,17.10
2018-03-06T13:57:50.384Z,17.00
2018-03-06T14:00:17.949Z,16.80
2018-03-06T14:02:46.987Z,16.70
2018-03-06T14:05:14.547Z,16.70
2018-03-06T14:07:42.050Z,16.80
2018-03-06T14:10:09.559Z,16.70
2018-03-06T14:12:37.086Z,16.60
2018-03-06T14:15:05.420Z,16.70
2018-03-06T14:17:33.006Z,16.70
2018-03-06T14:20:01.420Z,16.80
2018-03-06T14:22:28.905Z,16.80
2018-03-06T14:24:56.418Z,16.80
2018-03-06T14:27:23.956Z,16.50
2018-03-06T14:29:52.252Z,16.30
2018-03-06T14:32:19.945Z,16.30
2018-03-06T14:34:47.486Z,16.30
2018-03-06T14:37:14.971Z,16.30
2018-03-06T14:39:42.603Z,16.20
2018-03-06T14:42:10.111Z,16.30
2018-03-06T14:44:38.311Z,16.30
2018-03-06T14:47:05.885Z,16.50
2018-03-06T14:49:33.868Z,16.50
2018-03-06T14:52:01.416Z,16.40
2018-03-06T14:54:28.958Z,16.40
2018-03-06T14:56:56.598Z,16.20
2018-03-06T14:59:25.089Z,16.30
2018-03-06T15:01:52.662Z,16.30
2018-03-06T15:04:20.325Z,16.40
2018-03-06T15:06:48.046Z,16.40
2018-03-06T15:09:15.753Z,16.50
2018-03-06T15:11:43.363Z,16.40
2018-03-06T15:14:10.870Z,16.40
2018-03-06T15:16:38.442Z,16.30
2018-03-06T15:19:06.150Z,16.20
2018-03-06T15:21:34.361Z,16.20
2018-03-06T15:24:01.847Z,16.10
2018-03-06T15:26:29.344Z,16.00
2018-03-06T15:28:57.623Z,16.00
2018-03-06T15:31:25.893Z,16.00
2018-03-06T15:33:54.164Z,15.90
2018-03-06T15:36:21.654Z,15.90
2018-03-06T15:38:49.141Z,15.90
2018-03-06T15:41:16.672Z,15.50
2018-03-06T15:43:44.132Z,15.40
2018-03-06T15:46:11.613Z,15.40
2018-03-06T15:48:39.133Z,15.40
2018-03-06T15:51:06.611Z,15.40
2018-03-06T15:53:34.093Z,15.40
2018-03-06T15:56:01.615Z,15.40
2018-03-06T15:58:29.158Z,15.40
2018-03-06T16:00:56.686Z,15.20
2018-03-06T16:03:24.928Z,15.20
2018-03-06T16:05:52.398Z,15.10
2018-03-06T16:08:19.912Z,15.10
2018-03-06T16:10:47.414Z,15.00
2018-03-06T16:13:14.895Z,14.80
2018-03-06T16:15:43.126Z,14.60
2018-03-06T16:18:10.628Z,14.60
2018-03-06T16:20:38.875Z,14.40
2018-03-06T16:23:06.390Z,14.40
2018-03-06T16:25:39.491Z,14.30
2018-03-06T16:28:07.034Z,14.30
2018-03-06T16:30:34.596Z,14.30
2018-03-06T16:33:02.104Z,14.20
2018-03-06T16:35:30.381Z,14.00
2018-03-06T16:37:58.656Z,14.00
2018-03-06T16:40:26.145Z,13.90
2018-03-06T16:42:53.644Z,13.90
2018-03-06T16:45:21.815Z,13.70
2018-03-06T16:47:49.371Z,13.70
2018-03-06T16:50:17.464Z,13.60
2018-03-06T16:52:45.703Z,13.40
2018-03-06T16:55:13.226Z,13.40
2018-03-06T16:57:41.547Z,13.30
2018-03-06T17:00:09.023Z,13.20
2018-03-06T17:02:37.293Z,13.00
2018-03-06T17:05:04.814Z,13.00
2018-03-06T17:07:32.288Z,12.90
2018-03-06T17:09:59.772Z,12.90
2018-03-06T17:12:28.083Z,12.80
2018-03-06T17:14:56.204Z,12.80
2018-03-06T17:17:23.819Z,12.80
2018-03-06T17:19:51.304Z,12.80
2018-03-06T17:22:18.836Z,12.80
2018-03-06T17:24:46.311Z,12.70
2018-03-06T17:27:13.807Z,12.70
2018-03-06T17:29:42.117Z,12.70
2018-03-06T17:32:09.612Z,12.60
2018-03-06T17:34:37.090Z,12.70
2018-03-06T17:37:05.327Z,12.60
2018-03-06T17:39:32.858Z,12.60
2018-03-06T17:42:00.399Z,12.60
2018-03-06T17:44:27.892Z,12.60
2018-03-06T17:46:55.360Z,12.50
2018-03-06T17:49:22.847Z,12.40
2018-03-06T17:51:51.105Z,12.30
2018-03-06T17:54:18.626Z,12.30
2018-03-06T17:56:46.114Z,12.30
2018-03-06T17:59:13.596Z,12.30
2018-03-06T18:01:42.112Z,12.20
2018-03-06T18:04:09.770Z,12.20
2018-03-06T18:06:37.350Z,12.20
2018-03-06T18:09:04.860Z,12.20
2018-03-06T18:11:33.109Z,12.20
2018-03-06T18:14:01.402Z,12.20
2018-03-06T18:16:29.727Z,12.20
2018-03-06T18:18:57.226Z,12.10
2018-03-06T18:21:24.754Z,12.20
2018-03-06T18:23:52.332Z,12.20
2018-03-06T18:26:19.946Z,12.10
2018-03-06T18:28:48.788Z,12.10
2018-03-06T18:31:17.061Z,12.10
2018-03-06T18:33:44.578Z,12.10
2018-03-06T18:36:12.118Z,12.00
2018-03-06T18:38:39.609Z,12.00
2018-03-06T18:41:07.108Z,11.90
2018-03-06T18:43:34.620Z,11.90
2018-03-06T18:46:02.144Z,11.90
2018-03-06T18:48:29.646Z,11.90
2018-03-06T18:51:09.159Z,11.90
2018-03-06T18:53:36.692Z,11.70
2018-03-06T18:56:04.176Z,11.70
2018-03-06T18:58:31.995Z,11.70
2018-03-06T19:04:21.919Z,11.70
2018-03-06T19:07:07.165Z,11.70
2018-03-06T19:09:35.491Z,11.70
2018-03-06T19:12:03.219Z,11.70
2018-03-06T19:14:30.803Z,11.70
2018-03-06T19:16:58.318Z,11.70
2018-03-06T19:19:27.171Z,11.60
2018-03-06T19:21:55.451Z,11.60
2018-03-06T19:24:22.956Z,11.60
2018-03-06T19:26:50.462Z,11.60
2018-03-06T19:29:19.555Z,11.60
2018-03-06T19:31:48.473Z,11.60
2018-03-06T19:34:16.121Z,11.60
2018-03-06T19:36:43.614Z,11.50
2018-03-06T19:39:11.762Z,11.50
2018-03-06T19:41:39.505Z,11.60
2018-03-06T19:44:08.041Z,11.60
2018-03-06T19:46:35.539Z,11.60
2018-03-06T19:49:03.145Z,11.60
2018-03-06T19:51:30.653Z,11.60
2018-03-06T19:53:58.130Z,11.60
2018-03-06T19:56:26.379Z,11.50
2018-03-06T19:58:53.867Z,11.50
2018-03-06T20:01:26.756Z,11.50
2018-03-06T20:03:54.323Z,11.50
2018-03-06T20:06:21.846Z,11.40
2018-03-06T20:08:50.092Z,11.40
2018-03-06T20:11:18.089Z,11.30
2018-03-06T20:13:46.385Z,11.30
2018-03-06T20:16:13.870Z,11.30
2018-03-06T20:18:41.415Z,11.30
2018-03-06T20:21:09.024Z,11.30
2018-03-06T20:23:37.266Z,11.20
2018-03-06T20:26:04.789Z,11.30
2018-03-06T20:28:32.299Z,11.20
2018-03-06T20:31:05.612Z,11.30
2018-03-06T20:33:33.105Z,11.30
2018-03-06T20:36:00.592Z,11.30
2018-03-06T20:38:33.848Z,11.30
2018-03-06T20:41:01.339Z,11.20
2018-03-06T20:43:28.862Z,11.10
2018-03-06T20:46:02.050Z,11.10
2018-03-06T20:48:29.542Z,11.00
2018-03-06T20:50:57.016Z,11.00
2018-03-06T20:53:30.348Z,11.00
2018-03-06T20:55:57.898Z,11.00
2018-03-06T20:58:25.394Z,11.00
2018-03-06T21:00:52.863Z,11.00
2018-03-06T21:03:20.390Z,10.90
2018-03-06T21:05:47.944Z,10.90
2018-03-06T21:08:15.436Z,10.80
2018-03-06T21:10:42.939Z,10.80
2018-03-06T21:13:11.205Z,10.80
2018-03-06T21:15:39.484Z,10.70
2018-03-06T21:18:07.872Z,10.70
2018-03-06T21:20:35.401Z,10.70
2018-03-06T21:23:02.934Z,10.70
2018-03-06T21:25:30.512Z,10.70
2018-03-06T21:27:58.050Z,10.60
2018-03-06T21:30:25.525Z,10.70
2018-03-06T21:32:53.266Z,10.70
2018-03-06T21:35:20.778Z,10.70
2018-03-06T21:37:48.260Z,10.60
2018-03-06T21:40:15.791Z,10.60
2018-03-06T21:42:43.278Z,10.60
2018-03-06T21:45:10.784Z,10.60
2018-03-06T21:47:39.027Z,10.60
2018-03-06T21:50:06.555Z,10.60
2018-03-06T21:52:34.067Z,10.60
2018-03-06T21:55:02.318Z,10.50
2018-03-06T21:57:29.810Z,10.40
2018-03-06T21:59:58.094Z,10.40
2018-03-06T22:02:25.616Z,10.40
2018-03-06T22:04:53.097Z,10.40
2018-03-06T22:07:21.350Z,10.40
2018-03-06T22:09:49.590Z,10.40
2018-03-06T22:12:17.101Z,10.40
2018-03-06T22:14:44.587Z,10.40
2018-03-06T22:17:12.075Z,10.30
2018-03-06T22:19:39.554Z,10.40
2018-03-06T22:22:07.794Z,10.30
2018-03-06T22:24:35.352Z,10.30
2018-03-06T22:27:02.895Z,10.20
2018-03-06T22:29:30.667Z,10.20
2018-03-06T22:31:58.271Z,10.20
2018-03-06T22:34:27.376Z,10.10
2018-03-06T22:36:55.636Z,10.10
2018-03-06T22:39:23.883Z,10.10
2018-03-06T22:41:51.362Z,10.10
2018-03-06T22:44:18.847Z,10.10
2018-03-06T22:46:46.301Z,10.10
2018-03-06T22:49:13.808Z,10.10
2018-03-06T22:51:41.281Z,10.00
2018-03-06T22:54:09.532Z,9.90
2018-03-06T22:56:37.027Z,9.90
2018-03-06T22:59:05.334Z,9.90
2018-03-06T23:01:32.809Z,9.80
2018-03-06T23:04:00.352Z,9.80
2018-03-06T23:06:27.835Z,9.80
2018-03-06T23:08:55.326Z,9.80
2018-03-06T23:11:23.638Z,9.80
2018-03-06T23:13:51.108Z,9.80
2018-03-06T23:16:18.630Z,9.80
2018-03-06T23:18:46.140Z,9.70
2018-03-06T23:21:13.628Z,9.70
2018-03-06T23:23:41.124Z,9.70
2018-03-06T23:26:08.668Z,9.70
2018-03-06T23:28:36.132Z,9.70
2018-03-06T23:31:03.640Z,9.60
2018-03-06T23:33:31.136Z,9.60
2018-03-06T23:35:58.660Z,9.60
2018-03-06T23:38:26.145Z,9.60
2018-03-06T23:40:53.658Z,9.60
2018-03-06T23:43:21.146Z,9.50
2018-03-06T23:45:49.404Z,9.40
2018-03-06T23:48:17.641Z,9.40
2018-03-06T23:50:45.376Z,9.40
2018-03-06T23:53:13.351Z,9.30
2018-03-06T23:55:40.814Z,9.30
2018-03-06T23:58:08.336Z,9.30
